Winigan, Missouri
Current Conditions -  °F | °C
As of 9:42 PM on Monday 22 Dec 2014 (Local Time) from KIRK Reporting Station
Haze Haze  
Wind Chill: 40°   Ceiling: 600
Heat Index: 45°   Visibility: 4mi
Dew Point: 45°   Wind: 9mph
Humidity: 100%   Direction: 230°SW
Pressure: 29.45"   Gusts: 17mph
Location:  40.05°N, 92.9°W
Report Text: KIRK 230342Z AUTO 23008G15KT 4SM BR BKN006 OVC010 07/07 A2945 RMK AO2 RAB09E19 CIG 004V009 P0000 T00720072
Loading
Personal Weather Stations






























Interactive Weather Map New forecast layout! Learn more

10-Day Weather Forecast

Advertisements
Track Severe Weather on mobile